Terminal Aerodrome Forecast
Issued by NWS

Home | Current Version | Previous Version | Text Only | Print | Product List | Glossary On
Versions: 1 2 3 4 5 6 7 8 9 10 11 12 13
000
FTAK31 PAFA 291740
TAFAFA
TAF
PAFA 291740Z 2918/3024 VRB04KT P6SM FEW070 BKN100 BKN180
     FM292200 24006KT P6SM FEW050 BKN100 OVC180
     FM300600 VRB03KT P6SM FEW050 BKN100 OVC180
     FM301800 25008KT P6SM VCSH BKN050 OVC100=

USA.gov is the U.S. government's official web portal to all federal, state and local government web resources and services.